Portada
METAR-TAF:

METAR-TAF

Aeropuertos :

Aeropuerto de Murcia-San Javier

Murcia, España

latitud: 37-47N, longitud: 000-48W, altitud: 5 m

Observación

El informe se hizo hace 28 minutos, a las 16:30 UTC
Viento 9 kt del este-sureste, variando entre este-noreste y sur-sureste
Temperatura 29°C
Humedad 70%
Presión 1015 hPa
Visibilidad 10 km o más
Nubes dispersas a una altura de 1600 ft

METAR: LELC 151630Z 12009KT 070V160 9999 SCT016 29/23 Q1015 NOSIG

Hora: 18:58 (16:58 UTC)

Pronóstico

El informe se hizo hace 5 horas y 58 minutos, a las 11:00 UTC
Pronóstico válido del 15 a las 12 UTC al 16 a las 12 UTC
Viento 10 kt del este-sureste
Visibilidad 10 km o más
Escasas nubes a una altura de 1800 ft
Probabilidad 30% :
Temporalmente
del 15 a las 12 UTC al 15 a las 15 UTC
Escasas nubes a una altura de 1800 ft, Cumulus congestus.

TAF: LELC 151100Z 1512/1612 12010KT 9999 FEW018 TX30/1513Z TN25/1605Z PROB30 TEMPO 1512/1515 FEW018TCU

Observaciones y pronósticos meteorológicos de más de 4000 aeropuertos (mensajes METAR y TAF).

Los puntos amarillos y rojos representan las estaciones disponibles.

Ponga el ratón en el punto deseado para ver el nombre de la estación.

Haga clic para ver las observaciones y los pronósticos meteorológicos.

Para cambiar el mapa : haga clic en los botones verdes con una cruz de color negro para hacer un zoom, en el botón verde con un guión para alejar o en las flechas verdes para mapas adyacentes.


METAR-TAF: